createdAt,value
2023-01-30T00:01:13.013Z,17.63
2023-01-30T00:03:40.504Z,19.98
2023-01-30T00:06:07.834Z,22.13
2023-01-30T00:08:35.406Z,16.92
2023-01-30T00:11:07.618Z,20.65
2023-01-30T00:13:35.300Z,17.80
2023-01-30T00:16:02.629Z,19.15
2023-01-30T00:18:30.430Z,19.20
2023-01-30T00:21:02.767Z,18.90
2023-01-30T00:23:31.844Z,18.73
2023-01-30T00:25:59.539Z,21.58
2023-01-30T00:28:27.350Z,17.67
2023-01-30T00:30:56.417Z,21.60
2023-01-30T00:33:25.792Z,23.23
2023-01-30T00:35:56.207Z,19.33
2023-01-30T00:38:24.656Z,17.15
2023-01-30T00:40:51.888Z,18.23
2023-01-30T00:43:39.671Z,19.33
2023-01-30T00:46:33.613Z,18.48
2023-01-30T00:49:01.178Z,18.75
2023-01-30T00:51:28.649Z,16.40
2023-01-30T00:53:56.181Z,19.73
2023-01-30T00:56:23.417Z,19.23
2023-01-30T00:58:50.956Z,18.42
2023-01-30T01:01:18.283Z,17.80
2023-01-30T01:03:45.932Z,20.00
2023-01-30T01:06:13.183Z,19.35
2023-01-30T01:08:40.695Z,20.02
2023-01-30T01:11:08.149Z,21.52
2023-01-30T01:13:35.710Z,21.42
2023-01-30T01:16:03.093Z,20.48
2023-01-30T01:18:31.916Z,19.73
2023-01-30T01:20:59.134Z,22.17
2023-01-30T01:23:27.962Z,22.70
2023-01-30T01:25:55.655Z,20.90
2023-01-30T01:28:23.145Z,19.65
2023-01-30T01:30:50.572Z,19.58
2023-01-30T01:33:18.191Z,19.88
2023-01-30T01:35:47.405Z,19.40
2023-01-30T01:38:16.767Z,18.77
2023-01-30T01:41:04.956Z,19.35
2023-01-30T01:43:35.458Z,16.75
2023-01-30T01:46:11.283Z,19.83
2023-01-30T01:48:43.686Z,19.10
2023-01-30T01:51:18.165Z,18.05
2023-01-30T01:54:04.197Z,16.75
2023-01-30T01:56:34.619Z,17.13
2023-01-30T01:59:08.189Z,18.33
2023-01-30T02:01:35.571Z,17.27
2023-01-30T02:04:09.038Z,19.00
2023-01-30T02:06:39.432Z,21.52
2023-01-30T02:09:10.353Z,19.17
2023-01-30T02:11:45.146Z,17.42
2023-01-30T02:14:14.889Z,21.52
2023-01-30T02:16:46.570Z,22.70
2023-01-30T02:22:30.155Z,19.75
2023-01-30T02:25:33.927Z,18.80
2023-01-30T02:28:16.525Z,21.25
2023-01-30T02:30:56.385Z,23.38
2023-01-30T02:33:47.497Z,18.52
2023-01-30T02:36:33.643Z,20.15
2023-01-30T02:39:15.431Z,19.98
2023-01-30T02:42:12.129Z,20.70
2023-01-30T02:44:59.271Z,20.90
2023-01-30T02:47:53.920Z,21.90
2023-01-30T02:50:32.790Z,19.85
2023-01-30T02:53:00.891Z,23.73
2023-01-30T02:55:29.699Z,19.50
2023-01-30T02:57:58.012Z,21.33
2023-01-30T03:00:41.438Z,20.33
2023-01-30T03:03:50.352Z,19.52
2023-01-30T03:06:47.201Z,20.17
2023-01-30T03:09:48.652Z,18.85
2023-01-30T03:12:30.053Z,19.58
2023-01-30T03:15:08.638Z,17.37
2023-01-30T03:17:37.837Z,17.95
2023-01-30T03:20:06.069Z,20.15
2023-01-30T03:22:33.261Z,17.27
2023-01-30T03:25:01.118Z,16.80
2023-01-30T03:27:28.610Z,16.10
2023-01-30T03:29:56.177Z,13.48
2023-01-30T03:32:23.417Z,13.18
2023-01-30T03:34:51.482Z,11.82
2023-01-30T03:37:18.908Z,11.23
2023-01-30T03:39:46.601Z,11.82
2023-01-30T03:42:15.829Z,10.45
2023-01-30T03:44:43.575Z,9.68
2023-01-30T03:47:11.225Z,11.68
2023-01-30T03:49:38.938Z,11.07
2023-01-30T03:52:06.278Z,9.85
2023-01-30T03:54:33.824Z,8.68
2023-01-30T03:57:01.177Z,9.18
2023-01-30T03:59:29.542Z,9.52
2023-01-30T04:02:04.819Z,7.47
2023-01-30T04:04:32.943Z,8.90
2023-01-30T04:07:01.387Z,9.20
2023-01-30T04:09:29.543Z,7.15
2023-01-30T04:11:56.853Z,8.68
2023-01-30T04:14:25.252Z,8.68
2023-01-30T04:17:24.797Z,7.65
2023-01-30T04:20:15.805Z,6.85
2023-01-30T04:22:48.489Z,7.53
2023-01-30T04:25:17.245Z,6.75
2023-01-30T04:27:44.971Z,6.18
2023-01-30T04:30:22.547Z,5.18
2023-01-30T04:35:22.071Z,10.18
2023-01-30T04:37:49.292Z,6.20
2023-01-30T04:40:20.469Z,6.95
2023-01-30T04:42:47.678Z,5.88
2023-01-30T04:45:45.583Z,5.68
2023-01-30T04:48:13.483Z,5.65
2023-01-30T04:50:42.882Z,6.05
2023-01-30T04:53:10.337Z,5.03
2023-01-30T04:55:37.941Z,5.28
2023-01-30T04:58:05.463Z,6.60
2023-01-30T05:00:33.052Z,5.57
2023-01-30T05:03:01.591Z,7.00
2023-01-30T05:05:29.217Z,4.38
2023-01-30T05:07:56.455Z,5.40
2023-01-30T05:10:24.065Z,6.30
2023-01-30T05:12:51.358Z,4.70
2023-01-30T05:15:19.311Z,5.95
2023-01-30T05:17:46.723Z,4.32
2023-01-30T05:20:14.657Z,6.10
2023-01-30T05:22:41.867Z,4.30
2023-01-30T05:25:09.817Z,5.38
2023-01-30T05:27:37.376Z,6.65
2023-01-30T05:30:05.455Z,4.43
2023-01-30T05:32:32.673Z,4.60
2023-01-30T05:35:00.227Z,4.80
2023-01-30T05:37:27.632Z,4.57
2023-01-30T05:39:55.259Z,6.07
2023-01-30T05:42:22.583Z,3.85
2023-01-30T05:44:50.067Z,3.40
2023-01-30T05:47:17.267Z,3.88
2023-01-30T05:49:44.784Z,4.97
2023-01-30T05:52:12.002Z,7.10
2023-01-30T05:54:39.672Z,4.30
2023-01-30T05:57:06.892Z,3.95
2023-01-30T05:59:34.431Z,5.55
2023-01-30T06:02:01.707Z,3.97
2023-01-30T06:04:29.315Z,4.28
2023-01-30T06:06:56.651Z,4.53
2023-01-30T06:09:24.366Z,3.40
2023-01-30T06:11:53.281Z,4.22
2023-01-30T06:14:20.962Z,3.60
2023-01-30T06:16:48.197Z,3.90
2023-01-30T06:19:15.748Z,3.20
2023-01-30T06:21:43.019Z,3.38
2023-01-30T06:24:10.637Z,4.22
2023-01-30T06:26:37.985Z,3.22
2023-01-30T06:29:05.540Z,3.15
2023-01-30T06:31:32.863Z,2.88
2023-01-30T06:34:00.412Z,3.72
2023-01-30T06:36:27.705Z,2.08
2023-01-30T06:38:55.351Z,2.67
2023-01-30T06:41:22.580Z,3.67
2023-01-30T06:43:50.277Z,2.15
2023-01-30T06:46:17.587Z,3.33
2023-01-30T06:48:45.569Z,2.45
2023-01-30T06:51:12.955Z,1.98
2023-01-30T06:53:40.508Z,2.92
2023-01-30T06:56:07.806Z,2.63
2023-01-30T06:58:35.384Z,3.45
2023-01-30T07:01:03.365Z,2.60
2023-01-30T07:03:31.101Z,2.88
2023-01-30T07:05:58.503Z,2.53
2023-01-30T07:08:26.321Z,3.08
2023-01-30T07:10:54.562Z,4.97
2023-01-30T07:13:22.352Z,2.65
2023-01-30T07:15:50.462Z,3.08
2023-01-30T07:18:18.310Z,4.32
2023-01-30T07:20:49.829Z,4.38
2023-01-30T07:25:45.523Z,3.25
2023-01-30T07:28:13.169Z,2.92
2023-01-30T07:30:40.495Z,4.32
2023-01-30T07:33:08.117Z,2.58
2023-01-30T07:35:37.363Z,3.65
2023-01-30T07:38:05.906Z,3.10
2023-01-30T07:40:33.417Z,3.40
2023-01-30T07:43:07.213Z,2.25
2023-01-30T07:45:37.074Z,2.90
2023-01-30T07:48:05.556Z,5.43
2023-01-30T07:50:33.244Z,4.38
2023-01-30T07:53:03.654Z,5.18
2023-01-30T07:55:31.333Z,4.82
2023-01-30T07:57:59.354Z,6.25
2023-01-30T08:00:27.587Z,3.50
2023-01-30T08:02:55.253Z,4.15
2023-01-30T08:05:22.904Z,4.03
2023-01-30T08:07:50.470Z,4.10
2023-01-30T08:10:18.074Z,4.70
2023-01-30T08:12:45.803Z,4.22
2023-01-30T08:15:13.140Z,4.05
2023-01-30T08:17:40.724Z,3.83
2023-01-30T08:20:09.175Z,3.97
2023-01-30T08:22:36.916Z,4.90
2023-01-30T08:25:04.498Z,3.92
2023-01-30T08:27:32.017Z,4.60
2023-01-30T08:29:59.274Z,3.97
2023-01-30T08:32:26.819Z,4.05
2023-01-30T08:34:54.122Z,5.63
2023-01-30T08:37:21.702Z,4.72
2023-01-30T08:39:48.975Z,2.58
2023-01-30T08:42:16.504Z,4.05
2023-01-30T08:44:43.709Z,3.95
2023-01-30T08:47:11.329Z,4.15
2023-01-30T08:49:38.542Z,3.55
2023-01-30T08:52:06.034Z,3.45
2023-01-30T08:54:33.437Z,3.80
2023-01-30T08:57:01.171Z,5.88
2023-01-30T08:59:28.384Z,4.75
2023-01-30T09:01:55.890Z,5.15
2023-01-30T09:04:25.091Z,5.32
2023-01-30T09:06:52.936Z,5.47
2023-01-30T09:09:20.164Z,5.10
2023-01-30T09:11:48.334Z,4.75
2023-01-30T09:14:19.985Z,5.35
2023-01-30T09:16:49.703Z,4.60
2023-01-30T09:19:16.955Z,6.40
2023-01-30T09:21:44.463Z,7.88
2023-01-30T09:24:11.731Z,6.30
2023-01-30T09:26:40.535Z,7.70
2023-01-30T09:29:07.772Z,9.07
2023-01-30T09:31:35.373Z,4.95
2023-01-30T09:34:02.706Z,8.70
2023-01-30T09:36:30.328Z,8.32
2023-01-30T09:38:57.660Z,7.50
2023-01-30T09:41:52.553Z,9.48
2023-01-30T09:44:44.655Z,9.02
2023-01-30T09:47:14.072Z,9.75
2023-01-30T09:50:15.871Z,12.88
2023-01-30T09:52:56.976Z,7.10
2023-01-30T09:55:29.324Z,7.78
2023-01-30T09:57:59.486Z,10.25
2023-01-30T10:00:36.969Z,13.65
2023-01-30T10:03:21.481Z,6.75
2023-01-30T10:05:55.754Z,6.78
2023-01-30T10:08:48.322Z,7.43
2023-01-30T10:14:15.837Z,7.03
2023-01-30T10:16:54.410Z,6.32
2023-01-30T10:19:40.477Z,8.50
2023-01-30T10:22:25.260Z,7.05
2023-01-30T10:25:33.437Z,8.68
2023-01-30T10:28:11.505Z,7.15
2023-01-30T10:30:39.582Z,7.43
2023-01-30T10:33:23.796Z,7.80
2023-01-30T10:36:08.324Z,7.72
2023-01-30T10:38:50.776Z,11.32
2023-01-30T10:41:26.870Z,5.57
2023-01-30T10:44:14.827Z,5.78
2023-01-30T10:47:13.337Z,7.15
2023-01-30T10:49:56.504Z,8.10
2023-01-30T10:52:45.302Z,6.20
2023-01-30T10:55:38.582Z,5.95
2023-01-30T10:58:11.898Z,5.03
2023-01-30T11:00:44.524Z,5.50
2023-01-30T11:03:39.801Z,5.75
2023-01-30T11:06:26.653Z,5.55
2023-01-30T11:08:55.645Z,6.43
2023-01-30T11:11:28.266Z,6.65
2023-01-30T11:14:11.190Z,5.78
2023-01-30T11:16:52.789Z,5.22
2023-01-30T11:19:24.298Z,6.32
2023-01-30T11:21:56.764Z,5.53
2023-01-30T11:24:30.803Z,7.53
2023-01-30T11:27:28.434Z,9.27
2023-01-30T11:30:14.739Z,11.63
2023-01-30T11:32:44.305Z,11.90
2023-01-30T11:35:14.844Z,11.32
2023-01-30T11:37:45.124Z,10.20
2023-01-30T11:40:37.695Z,10.10
2023-01-30T11:45:41.263Z,8.73
2023-01-30T11:49:01.527Z,13.18
2023-01-30T11:51:10.754Z,12.60
2023-01-30T11:53:51.131Z,10.82
2023-01-30T11:56:25.133Z,9.48
2023-01-30T11:59:00.825Z,11.25
2023-01-30T12:01:35.736Z,10.38
2023-01-30T12:04:08.119Z,13.55
2023-01-30T12:06:39.052Z,17.60
2023-01-30T12:09:14.888Z,16.60
2023-01-30T12:11:45.259Z,15.00
2023-01-30T12:14:12.479Z,12.18
2023-01-30T12:16:54.250Z,10.07
2023-01-30T12:19:46.792Z,8.65
2023-01-30T12:22:30.220Z,12.23
2023-01-30T12:25:09.824Z,14.80
2023-01-30T12:28:01.912Z,14.57
2023-01-30T12:30:35.215Z,17.42
2023-01-30T12:33:06.066Z,19.20
2023-01-30T12:35:47.366Z,14.63
2023-01-30T12:38:58.208Z,11.30
2023-01-30T12:41:48.555Z,21.13
2023-01-30T12:44:25.064Z,14.40
2023-01-30T12:46:55.041Z,10.95
2023-01-30T12:49:31.230Z,10.90
2023-01-30T12:52:07.688Z,9.48
2023-01-30T12:54:35.204Z,12.30
2023-01-30T12:57:15.119Z,13.13
2023-01-30T13:00:00.661Z,10.30
2023-01-30T13:02:33.951Z,8.75
2023-01-30T13:05:22.685Z,18.08
2023-01-30T13:08:27.009Z,21.20
2023-01-30T13:11:00.745Z,10.32
2023-01-30T13:13:50.132Z,12.95
2023-01-30T13:16:32.805Z,8.45
2023-01-30T13:19:21.116Z,13.30
2023-01-30T13:21:57.902Z,14.32
2023-01-30T13:24:28.154Z,16.38
2023-01-30T13:27:00.619Z,10.77
2023-01-30T13:29:39.801Z,5.88
2023-01-30T13:32:31.688Z,11.38
2023-01-30T13:35:00.804Z,12.80
2023-01-30T13:37:30.066Z,9.80
2023-01-30T13:40:16.789Z,7.35
2023-01-30T13:42:50.740Z,7.35
2023-01-30T13:45:32.383Z,8.50
2023-01-30T13:48:18.634Z,10.60
2023-01-30T13:51:24.580Z,6.97
2023-01-30T13:54:03.395Z,5.75
2023-01-30T13:56:41.816Z,7.55
2023-01-30T13:59:47.781Z,10.25
2023-01-30T14:02:23.480Z,6.05
2023-01-30T14:05:03.987Z,6.78
2023-01-30T14:07:41.904Z,8.93
2023-01-30T14:10:09.389Z,10.40
2023-01-30T14:12:44.653Z,10.43
2023-01-30T14:15:15.247Z,9.15
2023-01-30T14:18:06.087Z,10.30
2023-01-30T14:20:41.244Z,8.65
2023-01-30T14:23:34.017Z,6.45
2023-01-30T14:26:02.093Z,9.52
2023-01-30T14:28:29.357Z,14.25
2023-01-30T14:30:59.232Z,6.35
2023-01-30T14:33:26.708Z,9.63
2023-01-30T14:36:00.372Z,12.05
2023-01-30T14:38:38.743Z,12.82
2023-01-30T14:41:07.141Z,11.73
2023-01-30T14:43:41.816Z,18.58
2023-01-30T14:46:32.361Z,11.63
2023-01-30T14:49:06.840Z,9.65
2023-01-30T14:51:43.634Z,11.52
2023-01-30T14:54:14.717Z,8.98
2023-01-30T14:56:42.375Z,12.38
2023-01-30T14:59:29.841Z,15.52
2023-01-30T15:01:59.984Z,13.57
2023-01-30T15:04:31.767Z,14.77
2023-01-30T15:07:04.439Z,8.48
2023-01-30T15:09:32.673Z,9.05
2023-01-30T15:12:30.865Z,10.48
2023-01-30T15:15:22.908Z,13.55
2023-01-30T15:17:58.235Z,9.60
2023-01-30T15:20:35.614Z,11.73
2023-01-30T15:23:43.798Z,10.55
2023-01-30T15:26:35.627Z,11.05
2023-01-30T15:29:24.843Z,14.85
2023-01-30T15:31:59.841Z,10.57
2023-01-30T15:34:30.398Z,11.98
2023-01-30T15:36:58.184Z,9.77
2023-01-30T15:39:29.514Z,13.77
2023-01-30T15:42:05.889Z,8.85
2023-01-30T15:44:49.812Z,9.82
2023-01-30T15:47:38.300Z,12.23
2023-01-30T15:50:09.932Z,11.18
2023-01-30T15:52:47.235Z,6.75
2023-01-30T15:55:25.913Z,9.00
2023-01-30T15:57:57.764Z,14.75
2023-01-30T16:00:29.386Z,6.70
2023-01-30T16:02:58.834Z,7.70
2023-01-30T16:05:27.072Z,8.32
2023-01-30T16:07:59.110Z,6.82
2023-01-30T16:10:30.146Z,8.25
2023-01-30T16:13:02.255Z,9.93
2023-01-30T16:15:39.739Z,9.38
2023-01-30T16:18:33.129Z,6.25
2023-01-30T16:21:04.703Z,3.92
2023-01-30T16:23:37.421Z,6.35
2023-01-30T16:26:09.771Z,4.00
2023-01-30T16:28:37.190Z,7.40
2023-01-30T16:31:07.709Z,9.73
2023-01-30T16:33:38.404Z,6.18
2023-01-30T16:36:27.899Z,6.00
2023-01-30T16:38:55.996Z,4.07
2023-01-30T16:41:34.010Z,5.85
2023-01-30T16:44:20.010Z,4.22
2023-01-30T16:46:57.345Z,10.23
2023-01-30T16:49:36.673Z,7.63
2023-01-30T16:52:18.883Z,7.65
2023-01-30T16:54:58.783Z,11.43
2023-01-30T16:58:05.314Z,6.63
2023-01-30T17:00:40.151Z,11.18
2023-01-30T17:03:21.890Z,8.98
2023-01-30T17:05:49.798Z,5.55
2023-01-30T17:08:54.034Z,6.85
2023-01-30T17:11:40.970Z,5.88
2023-01-30T17:14:14.708Z,7.45
2023-01-30T17:16:43.247Z,10.57
2023-01-30T17:19:10.813Z,6.30
2023-01-30T17:21:45.446Z,15.55
2023-01-30T17:24:23.716Z,11.70
2023-01-30T17:26:59.040Z,8.90
2023-01-30T17:29:43.688Z,8.93
2023-01-30T17:32:16.096Z,8.82
2023-01-30T17:34:43.742Z,7.72
2023-01-30T17:37:20.213Z,12.77
2023-01-30T17:39:48.016Z,10.23
2023-01-30T17:42:22.140Z,8.48
2023-01-30T17:44:50.116Z,9.80
2023-01-30T17:47:17.360Z,11.38
2023-01-30T17:49:44.905Z,7.13
2023-01-30T17:52:13.730Z,8.27
2023-01-30T17:54:41.312Z,13.02
2023-01-30T17:57:12.937Z,9.82
2023-01-30T18:02:10.359Z,6.97
2023-01-30T18:04:40.072Z,7.70
2023-01-30T18:07:11.929Z,12.43
2023-01-30T18:09:39.455Z,10.18
2023-01-30T18:12:06.819Z,7.55
2023-01-30T18:14:34.388Z,15.40
2023-01-30T18:17:01.944Z,10.13
2023-01-30T18:19:31.578Z,11.20
2023-01-30T18:21:58.962Z,10.45
2023-01-30T18:24:26.648Z,14.25
2023-01-30T18:26:53.943Z,10.00
2023-01-30T18:29:21.599Z,12.38
2023-01-30T18:31:48.929Z,17.27
2023-01-30T18:34:16.647Z,10.73
2023-01-30T18:36:43.897Z,11.35
2023-01-30T18:39:12.390Z,12.88
2023-01-30T18:41:39.632Z,12.43
2023-01-30T18:44:07.197Z,11.75
2023-01-30T18:46:34.644Z,9.20
2023-01-30T18:49:02.300Z,10.15
2023-01-30T18:51:33.836Z,13.00
2023-01-30T18:54:02.459Z,13.40
2023-01-30T18:56:32.077Z,10.55
2023-01-30T18:59:03.998Z,10.75
2023-01-30T19:01:35.598Z,7.18
2023-01-30T19:04:05.869Z,11.75
2023-01-30T19:06:35.945Z,10.85
2023-01-30T19:09:04.435Z,12.60
2023-01-30T19:11:50.531Z,11.82
2023-01-30T19:14:18.058Z,9.38
2023-01-30T19:16:45.382Z,11.77
2023-01-30T19:19:13.252Z,11.57
2023-01-30T19:21:40.780Z,10.18
2023-01-30T19:24:13.727Z,13.32
2023-01-30T19:26:41.067Z,11.40
2023-01-30T19:29:09.565Z,11.80
2023-01-30T19:31:37.302Z,17.10
2023-01-30T19:34:06.459Z,14.90
2023-01-30T19:36:36.032Z,9.38
2023-01-30T19:39:06.172Z,9.57
2023-01-30T19:41:35.581Z,12.85
2023-01-30T19:44:05.268Z,13.60
2023-01-30T19:46:33.143Z,13.20
2023-01-30T19:49:00.824Z,12.60
2023-01-30T19:51:30.583Z,13.13
2023-01-30T19:54:00.941Z,12.43
2023-01-30T19:56:29.639Z,16.10
2023-01-30T19:58:59.544Z,11.27
2023-01-30T20:01:29.884Z,8.05
2023-01-30T20:03:58.989Z,20.55
2023-01-30T20:06:29.404Z,12.55
2023-01-30T20:09:02.726Z,9.55
2023-01-30T20:11:30.378Z,12.00
2023-01-30T20:13:59.112Z,14.48
2023-01-30T20:16:27.786Z,11.02
2023-01-30T20:19:00.794Z,13.60
2023-01-30T20:21:29.719Z,19.58
2023-01-30T20:23:58.416Z,9.88
2023-01-30T20:26:29.157Z,10.95
2023-01-30T20:28:57.550Z,12.07
2023-01-30T20:31:27.207Z,14.50
2023-01-30T20:33:57.651Z,13.07
2023-01-30T20:36:27.218Z,10.52
2023-01-30T20:38:55.731Z,16.00
2023-01-30T20:41:26.186Z,10.90
2023-01-30T20:43:59.502Z,13.45
2023-01-30T20:46:34.660Z,11.77
2023-01-30T20:49:02.251Z,14.60
2023-01-30T20:51:31.915Z,7.75
2023-01-30T20:54:01.900Z,14.25
2023-01-30T20:56:34.965Z,18.42
2023-01-30T20:59:04.714Z,20.98
2023-01-30T21:01:32.555Z,19.23
2023-01-30T21:04:04.148Z,17.85
2023-01-30T21:06:41.309Z,21.13
2023-01-30T21:09:19.269Z,12.50
2023-01-30T21:11:47.427Z,11.77
2023-01-30T21:14:15.791Z,12.15
2023-01-30T21:16:43.936Z,15.63
2023-01-30T21:19:15.229Z,18.25
2023-01-30T21:21:52.745Z,10.53
2023-01-30T21:24:23.939Z,19.63
2023-01-30T21:26:51.987Z,10.95
2023-01-30T21:29:22.539Z,13.32
2023-01-30T21:31:50.417Z,17.17
2023-01-30T21:34:18.211Z,11.73
2023-01-30T21:37:05.432Z,18.20
2023-01-30T21:39:51.518Z,15.15
2023-01-30T21:42:37.171Z,13.70
2023-01-30T21:45:06.864Z,14.40
2023-01-30T21:47:34.236Z,12.25
2023-01-30T21:50:01.761Z,13.95
2023-01-30T21:52:32.612Z,15.15
2023-01-30T21:55:00.218Z,15.20
2023-01-30T21:57:27.503Z,14.48
2023-01-30T21:59:55.550Z,13.57
2023-01-30T22:02:22.925Z,11.38
2023-01-30T22:04:50.611Z,13.38
2023-01-30T22:07:17.916Z,13.40
2023-01-30T22:09:45.470Z,11.82
2023-01-30T22:12:12.686Z,16.13
2023-01-30T22:14:40.329Z,13.80
2023-01-30T22:17:07.609Z,13.88
2023-01-30T22:19:38.588Z,9.77
2023-01-30T22:22:05.908Z,15.55
2023-01-30T22:24:33.489Z,8.65
2023-01-30T22:27:00.792Z,17.92
2023-01-30T22:29:29.246Z,16.00
2023-01-30T22:31:56.678Z,19.80
2023-01-30T22:34:24.322Z,19.38
2023-01-30T22:36:51.899Z,11.00
2023-01-30T22:39:19.429Z,12.95
2023-01-30T22:41:46.722Z,13.07
2023-01-30T22:44:14.261Z,13.50
2023-01-30T22:46:41.601Z,11.50
2023-01-30T22:49:09.656Z,8.98
2023-01-30T22:51:39.948Z,19.95
2023-01-30T22:54:11.116Z,15.05
2023-01-30T22:56:41.737Z,19.00
2023-01-30T22:59:10.271Z,22.92
2023-01-30T23:01:40.049Z,11.95
2023-01-30T23:04:16.637Z,13.95
2023-01-30T23:06:44.750Z,11.07
2023-01-30T23:09:16.331Z,10.98
2023-01-30T23:12:09.221Z,12.15
2023-01-30T23:14:38.252Z,13.75
2023-01-30T23:17:26.813Z,13.27
2023-01-30T23:19:55.169Z,11.32
2023-01-30T23:22:22.924Z,11.43
2023-01-30T23:24:51.507Z,10.48
2023-01-30T23:27:19.550Z,11.23
2023-01-30T23:29:47.167Z,15.55
2023-01-30T23:32:15.152Z,9.77
2023-01-30T23:34:42.742Z,14.10
2023-01-30T23:37:10.008Z,15.75
2023-01-30T23:39:37.675Z,20.15
2023-01-30T23:42:04.900Z,13.82
2023-01-30T23:44:32.468Z,13.35
2023-01-30T23:46:59.775Z,12.77
2023-01-30T23:49:27.346Z,11.88
2023-01-30T23:51:54.559Z,19.27
2023-01-30T23:54:22.133Z,13.30
2023-01-30T23:56:49.347Z,11.93
2023-01-30T23:59:16.854Z,13.57
